createdAt,value
2022-08-27T00:02:18.025Z,11.30
2022-08-27T00:04:46.555Z,13.60
2022-08-27T00:07:14.369Z,16.60
2022-08-27T00:09:43.310Z,16.60
2022-08-27T00:12:11.999Z,16.60
2022-08-27T00:14:40.583Z,15.70
2022-08-27T00:17:08.509Z,12.30
2022-08-27T00:19:37.136Z,13.20
2022-08-27T00:22:06.538Z,14.80
2022-08-27T00:24:38.530Z,16.40
2022-08-27T00:27:17.362Z,13.20
2022-08-27T00:29:47.595Z,17.60
2022-08-27T00:32:16.183Z,14.40
2022-08-27T00:34:45.102Z,13.90
2022-08-27T00:37:14.444Z,11.90
2022-08-27T00:39:42.619Z,12.30
2022-08-27T00:42:10.685Z,13.70
2022-08-27T00:44:39.433Z,14.60
2022-08-27T00:47:13.859Z,15.90
2022-08-27T00:49:50.983Z,15.70
2022-08-27T00:52:26.432Z,13.50
2022-08-27T00:55:05.821Z,14.00
2022-08-27T00:57:39.050Z,15.40
2022-08-27T01:00:13.013Z,12.10
2022-08-27T01:02:42.307Z,14.60
2022-08-27T01:05:15.511Z,15.30
2022-08-27T01:07:54.094Z,16.90
2022-08-27T01:10:26.958Z,12.90
2022-08-27T01:12:56.666Z,10.70
2022-08-27T01:15:26.705Z,13.60
2022-08-27T01:17:55.593Z,13.30
2022-08-27T01:20:30.240Z,14.60
2022-08-27T01:23:13.962Z,17.80
2022-08-27T01:25:44.000Z,12.70
2022-08-27T01:28:13.819Z,11.80
2022-08-27T01:30:43.198Z,12.70
2022-08-27T01:33:14.811Z,13.50
2022-08-27T01:35:46.361Z,13.40
2022-08-27T01:38:30.291Z,16.30
2022-08-27T01:41:01.109Z,13.70
2022-08-27T01:43:31.857Z,12.80
2022-08-27T01:45:59.852Z,12.90
2022-08-27T01:48:29.418Z,11.50
2022-08-27T01:50:57.403Z,12.70
2022-08-27T01:53:26.891Z,14.10
2022-08-27T01:55:58.997Z,16.90
2022-08-27T01:58:30.525Z,14.10
2022-08-27T02:01:03.403Z,14.90
2022-08-27T02:03:32.389Z,13.80
2022-08-27T02:06:04.952Z,17.10
2022-08-27T02:08:32.837Z,12.10
2022-08-27T02:11:01.894Z,12.40
2022-08-27T02:13:30.160Z,14.80
2022-08-27T02:15:58.566Z,16.40
2022-08-27T02:18:26.827Z,16.30
2022-08-27T02:20:55.016Z,15.20
2022-08-27T02:23:22.812Z,11.40
2022-08-27T02:25:51.887Z,15.10
2022-08-27T02:28:20.876Z,13.40
2022-08-27T02:30:48.743Z,14.20
2022-08-27T02:33:16.814Z,16.10
2022-08-27T02:35:44.574Z,16.00
2022-08-27T02:38:14.251Z,13.80
2022-08-27T02:40:42.486Z,12.90
2022-08-27T02:43:15.788Z,14.00
2022-08-27T02:45:44.568Z,11.50
2022-08-27T02:48:12.613Z,13.30
2022-08-27T02:50:41.403Z,12.80
2022-08-27T02:53:10.546Z,13.90
2022-08-27T02:55:39.310Z,14.40
2022-08-27T02:58:09.754Z,16.60
2022-08-27T03:00:38.002Z,12.10
2022-08-27T03:03:06.788Z,14.30
2022-08-27T03:05:35.114Z,15.30
2022-08-27T03:08:04.857Z,16.90
2022-08-27T03:10:33.261Z,14.90
2022-08-27T03:13:01.176Z,16.80
2022-08-27T03:15:29.087Z,17.40
2022-08-27T03:18:16.134Z,12.50
2022-08-27T03:20:46.455Z,12.20
2022-08-27T03:23:16.195Z,10.80
2022-08-27T03:25:51.692Z,12.20
2022-08-27T03:28:29.335Z,12.10
2022-08-27T03:31:01.524Z,12.10
2022-08-27T03:33:35.729Z,9.50
2022-08-27T03:36:06.447Z,8.10
2022-08-27T03:38:36.056Z,9.30
2022-08-27T03:41:04.803Z,7.30
2022-08-27T03:43:32.727Z,7.30
2022-08-27T03:46:02.365Z,7.60
2022-08-27T03:48:32.293Z,4.60
2022-08-27T03:51:08.672Z,5.30
2022-08-27T03:53:39.806Z,5.60
2022-08-27T03:56:09.494Z,6.70
2022-08-27T03:58:39.067Z,7.40
2022-08-27T04:01:07.945Z,5.70
2022-08-27T04:03:37.943Z,8.10
2022-08-27T04:06:06.076Z,7.50
2022-08-27T04:08:34.463Z,8.00
2022-08-27T04:11:07.149Z,7.60
2022-08-27T04:13:35.052Z,6.40
2022-08-27T04:16:05.685Z,6.50
2022-08-27T04:18:34.134Z,5.90
2022-08-27T04:21:09.319Z,11.10
2022-08-27T04:23:38.839Z,8.00
2022-08-27T04:26:09.881Z,5.20
2022-08-27T04:28:39.037Z,6.70
2022-08-27T04:31:13.117Z,11.30
2022-08-27T04:33:51.040Z,6.30
2022-08-27T04:36:20.455Z,7.80
2022-08-27T04:38:49.152Z,5.70
2022-08-27T04:41:20.043Z,4.30
2022-08-27T04:44:02.385Z,7.50
2022-08-27T04:46:33.218Z,4.50
2022-08-27T04:49:07.151Z,5.50
2022-08-27T04:51:40.988Z,4.80
2022-08-27T04:54:11.167Z,5.10
2022-08-27T04:56:39.774Z,7.80
2022-08-27T04:59:10.053Z,5.50
2022-08-27T05:01:40.263Z,4.50
2022-08-27T05:04:11.093Z,3.10
2022-08-27T05:06:39.419Z,7.60
2022-08-27T05:09:07.578Z,4.80
2022-08-27T05:11:35.706Z,7.50
2022-08-27T05:14:06.702Z,4.90
2022-08-27T05:16:36.681Z,7.50
2022-08-27T05:19:08.967Z,7.70
2022-08-27T05:21:40.303Z,4.60
2022-08-27T05:24:08.372Z,8.90
2022-08-27T05:26:37.285Z,8.30
2022-08-27T05:29:06.336Z,7.30
2022-08-27T05:31:35.460Z,10.10
2022-08-27T05:34:10.627Z,15.70
2022-08-27T05:36:48.588Z,12.90
2022-08-27T05:39:17.690Z,8.20
2022-08-27T05:41:45.597Z,6.60
2022-08-27T05:44:39.640Z,7.50
2022-08-27T05:47:03.318Z,9.40
2022-08-27T05:49:32.097Z,8.40
2022-08-27T05:52:00.285Z,10.70
2022-08-27T05:54:28.134Z,9.20
2022-08-27T05:56:55.953Z,9.60
2022-08-27T05:59:42.664Z,6.30
2022-08-27T06:02:11.246Z,5.70
2022-08-27T06:04:40.520Z,4.20
2022-08-27T06:07:10.652Z,4.70
2022-08-27T06:09:39.778Z,8.10
2022-08-27T06:12:12.391Z,5.40
2022-08-27T06:14:40.579Z,4.00
2022-08-27T06:17:08.613Z,5.30
2022-08-27T06:19:36.671Z,3.10
2022-08-27T06:22:10.023Z,6.90
2022-08-27T06:24:42.957Z,7.20
2022-08-27T06:27:14.204Z,6.60
2022-08-27T06:29:42.973Z,3.20
2022-08-27T06:32:12.237Z,5.50
2022-08-27T06:34:40.913Z,3.00
2022-08-27T06:37:09.059Z,4.50
2022-08-27T06:39:39.494Z,3.30
2022-08-27T06:42:11.939Z,5.00
2022-08-27T06:44:41.688Z,5.10
2022-08-27T06:47:11.146Z,5.10
2022-08-27T06:49:41.035Z,6.00
2022-08-27T06:52:09.333Z,2.10
2022-08-27T06:54:40.408Z,5.20
2022-08-27T06:57:08.216Z,2.50
2022-08-27T06:59:38.703Z,4.90
2022-08-27T07:02:08.013Z,5.20
2022-08-27T07:04:37.704Z,16.20
2022-08-27T07:07:06.339Z,7.40
2022-08-27T07:09:34.968Z,3.80
2022-08-27T07:12:03.733Z,11.60
2022-08-27T07:14:37.077Z,5.10
2022-08-27T07:17:11.351Z,7.50
2022-08-27T07:19:45.457Z,3.20
2022-08-27T07:22:13.931Z,11.30
2022-08-27T07:24:41.900Z,5.80
2022-08-27T07:27:09.796Z,3.30
2022-08-27T07:29:37.698Z,2.60
2022-08-27T07:32:05.757Z,1.70
2022-08-27T07:34:33.648Z,6.60
2022-08-27T07:37:01.551Z,1.30
2022-08-27T07:39:29.338Z,6.60
2022-08-27T07:42:16.499Z,4.60
2022-08-27T07:44:44.425Z,3.90
2022-08-27T07:47:12.438Z,9.60
2022-08-27T07:49:41.197Z,3.30
2022-08-27T07:52:17.352Z,3.60
2022-08-27T07:54:51.632Z,4.50
2022-08-27T07:57:20.026Z,3.40
2022-08-27T07:59:48.695Z,3.50
2022-08-27T08:02:16.588Z,2.80
2022-08-27T08:04:44.835Z,7.20
2022-08-27T08:07:12.624Z,3.10
2022-08-27T08:09:40.390Z,3.20
2022-08-27T08:12:08.649Z,3.40
2022-08-27T08:14:37.038Z,2.20
2022-08-27T08:17:06.399Z,4.50
2022-08-27T08:19:39.027Z,5.80
2022-08-27T08:22:07.753Z,3.00
2022-08-27T08:24:36.621Z,5.80
2022-08-27T08:27:07.704Z,6.50
2022-08-27T08:29:36.990Z,6.50
2022-08-27T08:32:06.764Z,4.50
2022-08-27T08:34:36.200Z,3.90
2022-08-27T08:37:05.849Z,2.80
2022-08-27T08:39:35.906Z,5.70
2022-08-27T08:42:07.150Z,3.80
2022-08-27T08:44:45.959Z,3.50
2022-08-27T08:47:22.010Z,4.20
2022-08-27T08:50:02.394Z,3.00
2022-08-27T08:52:43.840Z,2.90
2022-08-27T08:55:47.720Z,3.90
2022-08-27T09:00:54.589Z,3.30
2022-08-27T09:03:23.674Z,3.50
2022-08-27T09:06:03.127Z,4.60
2022-08-27T09:08:41.673Z,4.30
2022-08-27T09:11:25.282Z,3.60
2022-08-27T09:13:59.603Z,6.20
2022-08-27T09:16:28.200Z,5.80
2022-08-27T09:18:56.151Z,4.70
2022-08-27T09:21:51.877Z,3.80
2022-08-27T09:24:26.005Z,4.30
2022-08-27T09:26:55.085Z,4.10
2022-08-27T09:29:28.173Z,3.70
2022-08-27T09:32:05.415Z,4.60
2022-08-27T09:34:39.453Z,3.80
2022-08-27T09:37:10.542Z,4.20
2022-08-27T09:39:47.773Z,5.10
2022-08-27T09:42:24.045Z,6.00
2022-08-27T09:44:54.541Z,5.00
2022-08-27T09:47:23.303Z,6.30
2022-08-27T09:50:07.028Z,3.50
2022-08-27T09:52:51.402Z,6.00
2022-08-27T09:55:44.671Z,6.80
2022-08-27T09:58:26.826Z,4.80
2022-08-27T10:01:05.825Z,7.30
2022-08-27T10:03:34.461Z,5.30
2022-08-27T10:06:03.127Z,5.80
2022-08-27T10:08:51.062Z,6.10
2022-08-27T10:11:38.426Z,6.40
2022-08-27T10:14:21.384Z,5.60
2022-08-27T10:17:08.147Z,4.80
2022-08-27T10:19:41.561Z,9.30
2022-08-27T10:22:33.758Z,7.90
2022-08-27T10:25:30.161Z,5.20
2022-08-27T10:28:12.879Z,5.10
2022-08-27T10:31:16.681Z,3.40
2022-08-27T10:34:25.664Z,5.20
2022-08-27T10:37:13.967Z,2.50
2022-08-27T10:39:54.774Z,2.90
2022-08-27T10:42:32.365Z,3.80
2022-08-27T10:45:31.103Z,1.70
2022-08-27T10:48:24.674Z,2.20
2022-08-27T10:51:37.903Z,2.20
2022-08-27T10:54:32.791Z,2.40
2022-08-27T10:57:28.910Z,4.10
2022-08-27T11:00:14.820Z,3.80
2022-08-27T11:03:09.348Z,4.20
2022-08-27T11:05:51.181Z,3.50
2022-08-27T11:08:50.147Z,3.00
2022-08-27T11:14:54.650Z,2.00
2022-08-27T11:17:32.020Z,2.60
2022-08-27T11:20:25.047Z,1.50
2022-08-27T11:23:31.977Z,2.60
2022-08-27T11:26:04.292Z,3.20
2022-08-27T11:28:50.479Z,2.30
2022-08-27T11:31:40.990Z,1.80
2022-08-27T11:34:48.790Z,1.50
2022-08-27T11:37:51.398Z,2.60
2022-08-27T11:40:58.509Z,2.20
2022-08-27T11:43:32.541Z,3.80
2022-08-27T11:46:06.506Z,4.00
2022-08-27T11:48:43.857Z,5.00
2022-08-27T11:51:26.545Z,3.60
2022-08-27T11:53:57.965Z,2.20
2022-08-27T11:56:28.953Z,2.90
2022-08-27T11:59:08.650Z,4.70
2022-08-27T12:01:36.879Z,2.50
2022-08-27T12:04:28.624Z,3.20
2022-08-27T12:07:17.627Z,3.60
2022-08-27T12:10:19.942Z,3.10
2022-08-27T12:12:58.473Z,6.20
2022-08-27T12:15:58.848Z,4.30
2022-08-27T12:18:53.789Z,4.50
2022-08-27T12:22:27.695Z,5.10
2022-08-27T12:25:00.544Z,5.50
2022-08-27T12:27:37.119Z,3.40
2022-08-27T12:30:30.017Z,3.80
2022-08-27T12:33:00.190Z,3.80
2022-08-27T12:35:49.100Z,5.70
2022-08-27T12:38:32.662Z,2.90
2022-08-27T12:41:04.056Z,3.30
2022-08-27T12:43:38.351Z,3.70
2022-08-27T12:46:17.871Z,6.60
2022-08-27T12:48:51.958Z,4.80
2022-08-27T12:51:26.025Z,3.80
2022-08-27T12:53:54.593Z,3.60
2022-08-27T12:56:56.764Z,4.60
2022-08-27T13:00:02.369Z,3.60
2022-08-27T13:02:55.832Z,3.30
2022-08-27T13:05:25.177Z,3.90
2022-08-27T13:07:54.741Z,3.50
2022-08-27T13:10:32.957Z,3.50
2022-08-27T13:13:08.061Z,4.20
2022-08-27T13:15:42.424Z,3.20
2022-08-27T13:18:13.482Z,5.00
2022-08-27T13:20:41.827Z,5.30
2022-08-27T13:23:24.108Z,2.70
2022-08-27T13:26:24.962Z,2.60
2022-08-27T13:28:53.540Z,3.20
2022-08-27T13:31:24.753Z,3.00
2022-08-27T13:33:58.791Z,3.60
2022-08-27T13:36:35.564Z,5.00
2022-08-27T13:39:06.242Z,3.90
2022-08-27T13:41:36.887Z,4.20
2022-08-27T13:44:19.714Z,3.30
2022-08-27T13:47:00.535Z,5.00
2022-08-27T13:49:34.158Z,4.60
2022-08-27T13:52:34.147Z,5.60
2022-08-27T13:55:08.243Z,5.50
2022-08-27T13:57:49.130Z,2.90
2022-08-27T14:00:31.680Z,2.70
2022-08-27T14:03:09.957Z,2.70
2022-08-27T14:05:48.472Z,2.70
2022-08-27T14:08:20.231Z,3.00
2022-08-27T14:10:58.916Z,4.90
2022-08-27T14:13:29.003Z,2.40
2022-08-27T14:15:59.608Z,5.60
2022-08-27T14:18:57.755Z,2.50
2022-08-27T14:21:24.161Z,4.30
2022-08-27T14:23:54.179Z,4.10
2022-08-27T14:26:22.990Z,2.80
2022-08-27T14:28:52.582Z,3.20
2022-08-27T14:31:31.428Z,3.50
2022-08-27T14:34:02.565Z,4.20
2022-08-27T14:36:33.171Z,3.30
2022-08-27T14:39:02.471Z,2.90
2022-08-27T14:41:30.813Z,4.60
2022-08-27T14:44:02.211Z,2.40
2022-08-27T14:46:35.988Z,4.60
2022-08-27T14:49:25.210Z,3.20
2022-08-27T14:51:54.038Z,2.90
2022-08-27T14:54:22.807Z,5.30
2022-08-27T14:56:59.186Z,4.60
2022-08-27T14:59:27.200Z,3.80
2022-08-27T15:01:59.914Z,5.30
2022-08-27T15:04:28.646Z,2.80
2022-08-27T15:06:57.411Z,3.40
2022-08-27T15:09:28.590Z,2.70
2022-08-27T15:11:58.012Z,3.40
2022-08-27T15:14:29.310Z,3.40
2022-08-27T15:17:00.767Z,5.00
2022-08-27T15:19:30.352Z,4.20
2022-08-27T15:22:17.137Z,3.00
2022-08-27T15:24:50.987Z,4.00
2022-08-27T15:27:19.509Z,3.40
2022-08-27T15:29:50.217Z,2.70
2022-08-27T15:32:47.376Z,2.70
2022-08-27T15:35:19.940Z,3.50
2022-08-27T15:37:47.821Z,3.80
2022-08-27T15:40:18.597Z,3.90
2022-08-27T15:42:52.975Z,3.30
2022-08-27T15:45:21.889Z,3.60
2022-08-27T15:47:53.646Z,3.40
2022-08-27T15:50:28.951Z,3.50
2022-08-27T15:53:00.442Z,4.70
2022-08-27T15:55:37.838Z,4.90
2022-08-27T15:58:09.067Z,3.30
2022-08-27T16:00:37.864Z,3.10
2022-08-27T16:03:11.424Z,4.70
2022-08-27T16:05:46.178Z,5.90
2022-08-27T16:08:16.871Z,3.40
2022-08-27T16:10:47.619Z,3.60
2022-08-27T16:13:16.219Z,5.40
2022-08-27T16:15:45.831Z,3.80
2022-08-27T16:18:14.203Z,4.80
2022-08-27T16:20:45.373Z,8.10
2022-08-27T16:23:13.937Z,7.60
2022-08-27T16:26:14.777Z,3.80
2022-08-27T16:28:47.847Z,5.80
2022-08-27T16:33:44.389Z,12.30
2022-08-27T16:36:12.575Z,8.30
2022-08-27T16:38:47.783Z,6.90
2022-08-27T16:41:15.645Z,7.30
2022-08-27T16:43:43.757Z,8.20
2022-08-27T16:46:11.831Z,8.20
2022-08-27T16:49:01.782Z,10.20
2022-08-27T16:51:35.964Z,8.00
2022-08-27T16:54:05.404Z,9.80
2022-08-27T16:56:37.699Z,8.10
2022-08-27T16:59:06.965Z,9.40
2022-08-27T17:01:35.413Z,11.50
2022-08-27T17:04:18.185Z,10.80
2022-08-27T17:06:51.893Z,9.80
2022-08-27T17:09:19.741Z,8.50
2022-08-27T17:11:57.094Z,13.10
2022-08-27T17:14:26.959Z,11.40
2022-08-27T17:16:54.833Z,10.00
2022-08-27T17:19:26.333Z,12.60
2022-08-27T17:21:55.017Z,14.20
2022-08-27T17:24:23.095Z,11.50
2022-08-27T17:26:53.959Z,11.40
2022-08-27T17:29:21.834Z,11.90
2022-08-27T17:31:49.705Z,10.80
2022-08-27T17:34:21.917Z,10.50
2022-08-27T17:36:51.889Z,12.50
2022-08-27T17:39:22.442Z,10.40
2022-08-27T17:41:53.224Z,14.30
2022-08-27T17:44:23.443Z,10.60
2022-08-27T17:46:53.298Z,10.30
2022-08-27T17:49:21.747Z,9.50
2022-08-27T17:51:55.408Z,11.90
2022-08-27T17:54:36.836Z,10.00
2022-08-27T17:57:19.674Z,12.30
2022-08-27T17:59:47.603Z,12.40
2022-08-27T18:02:28.145Z,11.60
2022-08-27T18:05:02.019Z,10.90
2022-08-27T18:07:29.904Z,10.70
2022-08-27T18:09:58.266Z,14.60
2022-08-27T18:12:27.320Z,11.80
2022-08-27T18:15:06.593Z,10.80
2022-08-27T18:17:35.686Z,10.50
2022-08-27T18:20:06.486Z,10.30
2022-08-27T18:22:35.158Z,10.20
2022-08-27T18:25:09.640Z,11.80
2022-08-27T18:27:40.202Z,11.80
2022-08-27T18:30:08.645Z,11.00
2022-08-27T18:32:36.617Z,12.40
2022-08-27T18:35:15.077Z,14.30
2022-08-27T18:37:43.043Z,11.30
2022-08-27T18:40:12.751Z,13.60
2022-08-27T18:42:41.686Z,12.50
2022-08-27T18:45:23.061Z,14.30
2022-08-27T18:47:52.878Z,13.70
2022-08-27T18:50:22.084Z,13.50
2022-08-27T18:52:52.176Z,13.60
2022-08-27T18:55:23.462Z,14.90
2022-08-27T18:57:52.072Z,15.10
2022-08-27T19:00:20.983Z,14.10
2022-08-27T19:02:52.873Z,14.20
2022-08-27T19:05:25.370Z,15.40
2022-08-27T19:07:56.840Z,15.00
2022-08-27T19:10:25.937Z,15.80
2022-08-27T19:12:54.106Z,16.20
2022-08-27T19:15:22.757Z,16.40
2022-08-27T19:17:55.517Z,15.30
2022-08-27T19:20:23.782Z,14.70
2022-08-27T19:22:52.443Z,17.30
2022-08-27T19:25:21.014Z,13.80
2022-08-27T19:27:49.465Z,15.50
2022-08-27T19:30:17.620Z,15.50
2022-08-27T19:32:54.965Z,13.70
2022-08-27T19:35:26.013Z,16.70
2022-08-27T19:37:53.855Z,17.90
2022-08-27T19:40:22.607Z,14.20
2022-08-27T19:42:51.241Z,15.20
2022-08-27T19:45:25.273Z,15.60
2022-08-27T19:47:53.632Z,15.70
2022-08-27T19:50:23.259Z,14.70
2022-08-27T19:52:52.105Z,16.60
2022-08-27T19:55:20.626Z,19.20
2022-08-27T19:57:49.877Z,17.60
2022-08-27T20:00:20.709Z,15.70
2022-08-27T20:02:50.779Z,18.10
2022-08-27T20:05:22.988Z,16.60
2022-08-27T20:07:52.830Z,15.80
2022-08-27T20:10:31.545Z,17.40
2022-08-27T20:13:05.684Z,19.80
2022-08-27T20:15:35.174Z,20.40
2022-08-27T20:18:05.090Z,16.50
2022-08-27T20:20:34.971Z,23.00
2022-08-27T20:23:05.237Z,18.90
2022-08-27T20:25:34.983Z,17.10
2022-08-27T20:28:34.953Z,16.80
2022-08-27T20:30:57.723Z,16.10
2022-08-27T20:33:27.247Z,14.70
2022-08-27T20:35:57.144Z,15.50
2022-08-27T20:38:25.186Z,18.30
2022-08-27T20:40:53.004Z,16.80
2022-08-27T20:43:23.457Z,13.80
2022-08-27T20:45:51.450Z,14.00
2022-08-27T20:48:19.717Z,14.00
2022-08-27T20:50:47.967Z,14.20
2022-08-27T20:53:15.939Z,14.50
2022-08-27T20:55:45.033Z,14.60
2022-08-27T20:58:31.462Z,14.10
2022-08-27T21:01:00.031Z,14.70
2022-08-27T21:03:29.391Z,13.90
2022-08-27T21:05:57.258Z,15.60
2022-08-27T21:08:25.631Z,14.80
2022-08-27T21:10:57.067Z,14.90
2022-08-27T21:13:27.135Z,14.40
2022-08-27T21:15:56.468Z,15.10
2022-08-27T21:18:29.498Z,14.50
2022-08-27T21:23:30.572Z,14.50
2022-08-27T21:26:08.064Z,13.90
2022-08-27T21:28:41.965Z,14.70
2022-08-27T21:31:12.612Z,15.60
2022-08-27T21:33:40.895Z,15.50
2022-08-27T21:36:12.412Z,16.80
2022-08-27T21:38:41.287Z,15.10
2022-08-27T21:41:09.796Z,14.60
2022-08-27T21:43:38.108Z,14.80
2022-08-27T21:46:07.037Z,14.70
2022-08-27T21:48:36.153Z,14.80
2022-08-27T21:51:09.623Z,13.30
2022-08-27T21:56:06.325Z,13.10
2022-08-27T21:58:34.776Z,16.70
2022-08-27T22:01:05.793Z,12.30
2022-08-27T22:03:36.049Z,11.50
2022-08-27T22:06:07.047Z,12.00
2022-08-27T22:08:36.124Z,12.40
2022-08-27T22:11:04.463Z,12.30
2022-08-27T22:13:33.824Z,12.40
2022-08-27T22:16:04.955Z,11.40
2022-08-27T22:18:33.312Z,12.20
2022-08-27T22:21:02.873Z,11.60
2022-08-27T22:23:31.141Z,11.20
2022-08-27T22:26:00.089Z,11.40
2022-08-27T22:28:28.042Z,11.20
2022-08-27T22:30:56.498Z,14.20
2022-08-27T22:33:24.571Z,11.30
2022-08-27T22:35:52.486Z,12.00
2022-08-27T22:38:20.312Z,10.70
2022-08-27T22:40:49.606Z,11.20
2022-08-27T22:43:17.447Z,12.70
2022-08-27T22:45:45.547Z,10.50
2022-08-27T22:48:14.886Z,10.50
2022-08-27T22:50:42.792Z,10.70
2022-08-27T22:53:12.248Z,11.30
2022-08-27T22:55:40.103Z,12.90
2022-08-27T22:58:08.062Z,11.10
2022-08-27T23:00:37.888Z,13.30
2022-08-27T23:03:10.224Z,10.90
2022-08-27T23:05:40.198Z,11.40
2022-08-27T23:08:12.169Z,11.90
2022-08-27T23:10:41.970Z,12.80
2022-08-27T23:13:11.888Z,12.10
2022-08-27T23:15:41.183Z,15.00
2022-08-27T23:18:09.166Z,12.40
2022-08-27T23:20:37.619Z,12.60
2022-08-27T23:23:08.023Z,13.10
2022-08-27T23:25:54.659Z,13.10
2022-08-27T23:28:23.545Z,14.00
2022-08-27T23:30:51.598Z,14.10
2022-08-27T23:33:20.245Z,14.10
2022-08-27T23:35:51.496Z,14.00
2022-08-27T23:38:21.217Z,14.90
2022-08-27T23:40:50.523Z,14.10
2022-08-27T23:43:19.223Z,13.20
2022-08-27T23:45:49.204Z,13.80
2022-08-27T23:48:17.008Z,14.30
2022-08-27T23:50:48.119Z,13.80
2022-08-27T23:53:16.045Z,14.30
2022-08-27T23:55:44.204Z,14.10
2022-08-27T23:58:13.462Z,13.90
